Accueil
METAR-TAF:

METAR-TAF

Aéroports :

Tripoli, Libye

Aéroport de Milaga

latitude: 32-54N, longitude: 13-17E, altitude: 11 m

Observation

Le bulletin a été fait il y a 43 minutes, à 02:50 UTC
Vent 2 kt de est
Température 19°C
Humidité 68%
Pression 1013 hPa
Visibilité: 6000 m
Quelques nuages à une hauteur de 2500 ft

METAR: HLLM 260250Z 10002KT 6000 FEW025 19/13 Q1013

Heure: 05:33 (03:33 UTC)

Prévision

Prévision valable du 25 à 23 UTC au 26 à 00 UTC
Vent 2 kt de direction variable
Visibilité 10 km ou plus
Quelques nuages à une hauteur de 3000 ft
Evoluant progressivement
du 26 à 05 UTC au 26 à 07 UTC
Vent 12 kt de est

TAF: HLLM 252300 2600/2624 VRB02KT 9999 FEW030 BECMG 2605/2607 08012KT

Observations et prévisions météorologiques de plus de 4000 aéroports (messages METAR et TAF).

Les stations disponibles sont représentées par des disques jaunes et rouges sur la carte.

Passer la souris dessus pour voir le nom de la station.

Cliquer dessus pour voir les observations et prévisions météorologiques.

Pour changer de carte: cliquez sur les boutons verts avec une croix noire pour zoomer, sur le bouton vert avec un tiret pour effectuer un zoom arrière, ou sur les flèches vertes pour les cartes adjacentes.


METAR-TAF: